createdAt,value
2019-04-01T00:01:46.187Z,9.80
2019-04-01T00:04:16.662Z,7.60
2019-04-01T00:06:47.047Z,8.87
2019-04-01T00:09:17.444Z,6.43
2019-04-01T00:11:47.829Z,8.33
2019-04-01T00:14:18.334Z,5.13
2019-04-01T00:16:48.691Z,8.07
2019-04-01T00:19:19.161Z,8.60
2019-04-01T00:21:49.467Z,4.97
2019-04-01T00:24:20.071Z,4.70
2019-04-01T00:26:50.662Z,6.47
2019-04-01T00:29:21.184Z,10.13
2019-04-01T00:31:51.447Z,7.37
2019-04-01T00:34:21.982Z,8.60
2019-04-01T00:36:52.430Z,7.23
2019-04-01T00:39:22.845Z,7.43
2019-04-01T00:41:57.223Z,6.03
2019-04-01T00:44:27.713Z,7.33
2019-04-01T00:46:57.344Z,7.63
2019-04-01T00:49:27.525Z,7.93
2019-04-01T00:51:57.906Z,10.57
2019-04-01T00:54:28.279Z,8.30
2019-04-01T00:56:58.639Z,6.37
2019-04-01T00:59:29.169Z,3.67
2019-04-01T01:01:59.774Z,7.40
2019-04-01T01:04:29.533Z,5.33
2019-04-01T01:06:59.880Z,7.43
2019-04-01T01:09:30.317Z,11.33
2019-04-01T01:12:00.763Z,8.60
2019-04-01T01:14:30.561Z,6.17
2019-04-01T01:17:00.894Z,6.63
2019-04-01T01:19:31.679Z,8.23
2019-04-01T01:22:02.118Z,6.07
2019-04-01T01:24:32.761Z,5.80
2019-04-01T01:27:03.146Z,7.67
2019-04-01T01:29:33.575Z,8.30
2019-04-01T01:32:04.062Z,9.13
2019-04-01T01:34:34.334Z,9.87
2019-04-01T01:37:04.846Z,9.27
2019-04-01T01:39:35.234Z,8.17
2019-04-01T01:42:05.621Z,7.83
2019-04-01T01:44:36.110Z,11.70
2019-04-01T01:47:06.416Z,7.37
2019-04-01T01:49:36.797Z,11.37
2019-04-01T01:52:07.238Z,9.93
2019-04-01T01:54:37.641Z,9.93
2019-04-01T01:57:07.985Z,9.77
2019-04-01T01:59:38.527Z,8.23
2019-04-01T02:02:09.390Z,9.80
2019-04-01T02:04:40.203Z,9.13
2019-04-01T02:07:10.463Z,8.27
2019-04-01T02:09:40.978Z,11.77
2019-04-01T02:12:11.298Z,9.70
2019-04-01T02:14:41.883Z,6.70
2019-04-01T02:17:12.259Z,10.70
2019-04-01T02:19:42.665Z,10.67
2019-04-01T02:22:13.046Z,6.70
2019-04-01T02:24:43.381Z,6.57
2019-04-01T02:27:13.824Z,8.03
2019-04-01T02:29:44.215Z,7.30
2019-04-01T02:32:14.608Z,7.27
2019-04-01T02:34:45.046Z,11.40
2019-04-01T02:37:15.356Z,8.10
2019-04-01T02:39:45.789Z,9.90
2019-04-01T02:42:15.694Z,9.70
2019-04-01T02:44:46.000Z,7.23
2019-04-01T02:47:16.428Z,4.73
2019-04-01T02:49:46.915Z,8.67
2019-04-01T02:52:17.170Z,5.00
2019-04-01T02:54:47.679Z,6.87
2019-04-01T02:57:18.191Z,8.40
2019-04-01T02:59:48.567Z,7.47
2019-04-01T03:02:19.193Z,9.90
2019-04-01T03:04:49.678Z,18.33
2019-04-01T03:07:20.065Z,18.40
2019-04-01T03:09:50.451Z,15.70
2019-04-01T03:12:20.804Z,7.30
2019-04-01T03:14:51.258Z,9.17
2019-04-01T03:17:21.685Z,6.67
2019-04-01T03:19:52.153Z,7.93
2019-04-01T03:22:22.655Z,9.63
2019-04-01T03:24:53.195Z,4.70
2019-04-01T03:27:23.572Z,4.77
2019-04-01T03:29:54.037Z,10.27
2019-04-01T03:32:24.376Z,10.50
2019-04-01T03:34:54.902Z,7.33
2019-04-01T03:37:25.387Z,6.63
2019-04-01T03:39:55.844Z,7.67
2019-04-01T03:42:26.098Z,6.70
2019-04-01T03:44:56.558Z,6.73
2019-04-01T03:47:27.020Z,7.80
2019-04-01T03:49:57.306Z,6.37
2019-04-01T03:52:27.032Z,9.60
2019-04-01T03:54:57.481Z,8.73
2019-04-01T03:57:27.950Z,7.37
2019-04-01T03:59:58.460Z,9.13
2019-04-01T04:02:30.474Z,7.97
2019-04-01T04:05:00.651Z,8.60
2019-04-01T04:07:30.810Z,10.57
2019-04-01T04:10:01.180Z,6.70
2019-04-01T04:12:31.473Z,5.37
2019-04-01T04:15:01.988Z,9.00
2019-04-01T04:17:32.385Z,8.60
2019-04-01T04:20:02.980Z,6.73
2019-04-01T04:22:33.351Z,8.37
2019-04-01T04:25:03.698Z,8.90
2019-04-01T04:27:34.093Z,14.23
2019-04-01T04:30:04.777Z,19.77
2019-04-01T04:32:35.180Z,17.03
2019-04-01T04:35:05.738Z,9.30
2019-04-01T04:37:36.164Z,13.03
2019-04-01T04:40:07.081Z,10.37
2019-04-01T04:42:37.430Z,8.90
2019-04-01T04:45:08.146Z,8.27
2019-04-01T04:47:38.527Z,11.70
2019-04-01T04:50:09.063Z,8.90
2019-04-01T04:52:39.507Z,8.07
2019-04-01T04:55:09.934Z,9.97
2019-04-01T04:57:40.229Z,6.40
2019-04-01T05:00:10.821Z,7.40
2019-04-01T05:02:42.794Z,11.03
2019-04-01T05:05:13.117Z,9.53
2019-04-01T05:07:43.484Z,10.20
2019-04-01T05:10:14.095Z,9.83
2019-04-01T05:12:44.453Z,8.20
2019-04-01T05:15:15.255Z,9.77
2019-04-01T05:17:45.750Z,11.60
2019-04-01T05:20:16.753Z,8.00
2019-04-01T05:22:46.650Z,10.13
2019-04-01T05:25:17.152Z,9.57
2019-04-01T05:27:48.125Z,10.10
2019-04-01T05:30:18.646Z,10.17
2019-04-01T05:32:49.373Z,9.90
2019-04-01T05:35:20.172Z,7.83
2019-04-01T05:37:50.633Z,7.57
2019-04-01T05:40:21.074Z,10.50
2019-04-01T05:42:51.503Z,10.60
2019-04-01T05:45:22.010Z,10.33
2019-04-01T05:47:53.265Z,5.93
2019-04-01T05:50:24.135Z,7.27
2019-04-01T05:52:53.973Z,7.80
2019-04-01T05:55:24.529Z,12.57
2019-04-01T05:57:55.030Z,17.33
2019-04-01T06:00:34.430Z,14.33
2019-04-01T06:03:05.312Z,12.37
2019-04-01T06:05:35.741Z,10.27
2019-04-01T06:08:06.267Z,11.20
2019-04-01T06:10:36.569Z,14.17
2019-04-01T06:13:06.908Z,9.57
2019-04-01T06:15:37.643Z,10.07
2019-04-01T06:18:08.150Z,14.07
2019-04-01T06:20:38.297Z,8.20
2019-04-01T06:23:08.471Z,10.10
2019-04-01T06:25:38.703Z,6.57
2019-04-01T06:28:09.113Z,10.73
2019-04-01T06:30:39.264Z,7.93
2019-04-01T06:33:09.389Z,9.60
2019-04-01T06:35:39.522Z,10.33
2019-04-01T06:38:09.694Z,10.30
2019-04-01T06:40:39.851Z,9.83
2019-04-01T06:43:09.987Z,7.00
2019-04-01T06:45:40.110Z,11.93
2019-04-01T06:48:10.242Z,10.43
2019-04-01T06:50:40.543Z,9.03
2019-04-01T06:53:10.729Z,10.13
2019-04-01T06:55:40.929Z,9.53
2019-04-01T06:58:12.061Z,9.27
2019-04-01T07:00:41.298Z,8.70
2019-04-01T07:03:13.531Z,9.07
2019-04-01T07:05:43.720Z,9.70
2019-04-01T07:08:13.889Z,8.37
2019-04-01T07:10:44.621Z,12.10
2019-04-01T07:13:14.993Z,9.93
2019-04-01T07:15:45.438Z,10.20
2019-04-01T07:18:15.865Z,8.80
2019-04-01T07:20:46.293Z,8.03
2019-04-01T07:23:16.679Z,9.23
2019-04-01T07:25:46.457Z,10.97
2019-04-01T07:28:16.567Z,10.90
2019-04-01T07:30:47.073Z,11.70
2019-04-01T07:33:17.189Z,12.57
2019-04-01T07:35:47.602Z,8.73
2019-04-01T07:38:17.994Z,5.10
2019-04-01T07:40:48.105Z,7.33
2019-04-01T07:43:18.233Z,6.27
2019-04-01T07:45:48.418Z,7.23
2019-04-01T07:48:18.529Z,7.37
2019-04-01T07:50:48.775Z,4.87
2019-04-01T07:53:18.888Z,8.57
2019-04-01T07:55:49.098Z,7.03
2019-04-01T07:58:19.223Z,5.80
2019-04-01T08:00:49.455Z,6.97
2019-04-01T08:03:19.585Z,5.53
2019-04-01T08:05:49.755Z,2.20
2019-04-01T08:08:19.980Z,3.20
2019-04-01T08:10:50.179Z,2.03
2019-04-01T08:13:20.293Z,3.07
2019-04-01T08:15:50.649Z,4.73
2019-04-01T09:17:08.779Z,2.97
2019-04-01T09:19:38.838Z,3.33
2019-04-01T09:22:09.012Z,2.70
2019-04-01T09:24:39.147Z,6.33
2019-04-01T09:27:09.352Z,3.63
2019-04-01T09:29:40.738Z,5.07
2019-04-01T09:32:11.256Z,3.43
2019-04-01T09:34:41.720Z,4.10
2019-04-01T09:37:11.858Z,3.13
2019-04-01T09:39:42.262Z,3.33
2019-04-01T09:42:12.409Z,4.53
2019-04-01T09:44:42.485Z,3.27
2019-04-01T09:47:12.853Z,4.23
2019-04-01T09:49:43.133Z,2.77
2019-04-01T09:52:13.501Z,4.77
2019-04-01T09:54:43.597Z,3.67
2019-04-01T09:57:17.815Z,3.47
2019-04-01T09:59:43.907Z,4.00
2019-04-01T10:02:14.105Z,4.70
2019-04-01T10:04:44.430Z,4.60
2019-04-01T10:07:14.606Z,5.47
2019-04-01T10:09:44.115Z,2.87
2019-04-01T10:12:14.146Z,4.80
2019-04-01T10:14:44.243Z,5.00
2019-04-01T10:17:14.757Z,5.63
2019-04-01T10:19:44.829Z,6.30
2019-04-01T10:22:14.988Z,7.30
2019-04-01T10:24:45.086Z,4.10
2019-04-01T10:27:15.308Z,4.30
2019-04-01T10:29:45.444Z,3.63
2019-04-01T10:32:15.582Z,5.37
2019-04-01T10:34:45.659Z,4.57
2019-04-01T10:37:16.310Z,3.30
2019-04-01T10:39:46.413Z,3.70
2019-04-01T10:42:16.569Z,3.93
2019-04-01T10:44:46.720Z,3.70
2019-04-01T10:47:17.324Z,2.53
2019-04-01T10:49:47.725Z,1.27
2019-04-01T10:52:18.414Z,3.80
2019-04-01T10:54:48.583Z,5.03
2019-04-01T10:57:19.121Z,4.33
2019-04-01T10:59:49.462Z,6.53
2019-04-01T11:02:19.730Z,4.23
2019-04-01T11:04:50.581Z,5.83
2019-04-01T11:07:21.124Z,3.43
2019-04-01T11:09:51.641Z,6.27
2019-04-01T11:12:22.187Z,2.50
2019-04-01T11:14:52.559Z,2.27
2019-04-01T11:17:23.149Z,1.93
2019-04-01T11:19:53.453Z,3.87
2019-04-01T11:22:23.983Z,3.53
2019-04-01T11:24:54.391Z,10.33
2019-04-01T11:27:24.928Z,2.23
2019-04-01T11:29:55.478Z,27.70
2019-04-01T11:32:25.666Z,3.57
2019-04-01T11:34:56.417Z,3.10
2019-04-01T11:37:26.690Z,3.83
2019-04-01T11:39:57.094Z,3.67
2019-04-01T11:42:27.723Z,5.03
2019-04-01T11:44:58.255Z,7.47
2019-04-01T11:47:28.757Z,3.50
2019-04-01T11:49:59.097Z,2.87
2019-04-01T11:52:29.463Z,4.73
2019-04-01T11:54:59.946Z,5.83
2019-04-01T11:57:30.167Z,3.80
2019-04-01T12:00:00.477Z,7.23
2019-04-01T12:02:31.031Z,11.57
2019-04-01T12:05:01.267Z,6.83
2019-04-01T12:07:31.855Z,4.47
2019-04-01T12:10:01.992Z,4.93
2019-04-01T12:12:32.279Z,4.40
2019-04-01T12:15:02.442Z,7.37
2019-04-01T12:17:33.019Z,1.97
2019-04-01T12:20:03.333Z,3.70
2019-04-01T12:22:33.840Z,3.73
2019-04-01T12:25:04.012Z,4.00
2019-04-01T12:27:34.660Z,3.40
2019-04-01T12:30:05.538Z,3.40
2019-04-01T12:32:35.965Z,10.47
2019-04-01T12:35:06.403Z,5.17
2019-04-01T12:37:36.995Z,2.57
2019-04-01T12:40:07.838Z,6.43
2019-04-01T12:42:38.279Z,2.77
2019-04-01T12:45:10.490Z,6.83
2019-04-01T12:47:38.770Z,52.13
2019-04-01T12:50:09.333Z,4.17
2019-04-01T12:52:39.920Z,3.10
2019-04-01T12:55:10.723Z,15.73
2019-04-01T12:57:41.233Z,11.60
2019-04-01T13:00:12.615Z,3.50
2019-04-01T13:02:43.157Z,7.13
2019-04-01T13:05:14.082Z,11.03
2019-04-01T13:07:44.406Z,3.50
2019-04-01T13:10:14.874Z,1.43
2019-04-01T13:12:46.394Z,2.80
2019-04-01T13:15:16.096Z,3.40
2019-04-01T13:17:46.530Z,2.73
2019-04-01T13:20:16.961Z,5.77
2019-04-01T13:22:47.659Z,9.20
2019-04-01T13:25:18.082Z,4.07
2019-04-01T13:27:47.918Z,3.23
2019-04-01T13:30:18.464Z,4.50
2019-04-01T13:32:48.954Z,6.73
2019-04-01T13:35:19.387Z,4.03
2019-04-01T13:37:49.728Z,2.43
2019-04-01T13:40:20.152Z,4.77
2019-04-01T13:42:50.528Z,2.27
2019-04-01T13:45:21.560Z,3.13
2019-04-01T13:47:51.710Z,3.13
2019-04-01T13:50:22.118Z,6.60
2019-04-01T13:52:52.551Z,6.70
2019-04-01T13:55:23.127Z,4.23
2019-04-01T13:57:53.688Z,6.87
2019-04-01T14:00:26.985Z,10.67
2019-04-01T14:02:54.435Z,8.70
2019-04-01T14:05:25.086Z,7.73
2019-04-01T14:09:20.748Z,5.43
2019-04-01T14:11:50.211Z,3.90
2019-04-01T14:14:20.864Z,14.80
2019-04-01T14:16:51.291Z,5.93
2019-04-01T14:19:22.053Z,7.17
2019-04-01T14:21:52.360Z,6.70
2019-04-01T14:24:22.397Z,9.80
2019-04-01T14:26:52.520Z,4.27
2019-04-01T14:29:22.736Z,5.00
2019-04-01T14:31:52.860Z,6.13
2019-04-01T14:34:23.763Z,6.07
2019-04-01T14:36:53.254Z,12.93
2019-04-01T14:39:23.414Z,3.33
2019-04-01T14:41:53.744Z,6.73
2019-04-01T14:44:23.939Z,6.27
2019-04-01T14:46:54.177Z,4.00
2019-04-01T14:49:24.408Z,19.87
2019-04-01T14:51:54.513Z,4.33
2019-04-01T14:54:24.691Z,9.33
2019-04-01T14:56:54.827Z,6.00
2019-04-01T14:59:25.344Z,4.33
2019-04-01T15:01:55.492Z,4.23
2019-04-01T15:04:25.684Z,4.60
2019-04-01T15:06:55.851Z,7.47
2019-04-01T15:09:26.439Z,19.93
2019-04-01T15:11:56.561Z,5.50
2019-04-01T15:14:26.714Z,2.97
2019-04-01T15:16:56.799Z,7.67
2019-04-01T15:19:27.173Z,9.03
2019-04-01T15:21:57.199Z,6.27
2019-04-01T15:24:28.024Z,6.80
2019-04-01T15:26:57.581Z,6.83
2019-04-01T15:29:29.137Z,10.10
2019-04-01T15:31:57.928Z,4.87
2019-04-01T15:34:28.140Z,4.33
2019-04-01T15:36:58.471Z,9.50
2019-04-01T15:39:28.676Z,10.50
2019-04-01T15:41:58.817Z,10.03
2019-04-01T15:44:29.376Z,7.73
2019-04-01T15:46:59.206Z,5.20
2019-04-01T15:49:29.381Z,5.73
2019-04-01T15:51:59.487Z,10.63
2019-04-01T15:54:29.697Z,13.10
2019-04-01T15:56:59.957Z,12.93
2019-04-01T15:59:30.421Z,26.23
2019-04-01T16:02:00.921Z,35.67
2019-04-01T16:04:31.398Z,7.50
2019-04-01T16:07:01.890Z,5.43
2019-04-01T16:09:32.361Z,8.73
2019-04-01T16:12:33.670Z,13.80
2019-04-01T16:15:04.145Z,15.90
2019-04-01T16:17:34.959Z,8.90
2019-04-01T16:20:05.667Z,13.83
2019-04-01T16:22:36.118Z,16.10
2019-04-01T16:25:06.867Z,43.87
2019-04-01T16:27:37.314Z,56.27
2019-04-01T16:30:08.100Z,26.50
2019-04-01T16:32:38.594Z,28.93
2019-04-01T16:35:09.185Z,20.57
2019-04-01T16:37:39.791Z,13.33
2019-04-01T16:40:10.243Z,12.87
2019-04-01T16:42:40.347Z,10.23
2019-04-01T16:45:11.059Z,10.40
2019-04-01T16:47:41.204Z,11.10
2019-04-01T16:50:11.644Z,3.33
2019-04-01T16:52:42.115Z,9.27
2019-04-01T16:55:12.724Z,4.93
2019-04-01T16:57:43.200Z,5.07
2019-04-01T17:00:14.763Z,8.43
2019-04-01T17:02:44.099Z,4.73
2019-04-01T17:05:14.885Z,8.07
2019-04-01T17:07:45.571Z,7.40
2019-04-01T17:10:21.036Z,4.93
2019-04-01T17:12:51.483Z,6.93
2019-04-01T17:15:21.992Z,4.47
2019-04-01T17:21:25.651Z,5.97
2019-04-01T17:23:56.142Z,10.43
2019-04-01T17:26:26.509Z,18.50
2019-04-01T17:28:56.965Z,13.67
2019-04-01T17:31:27.595Z,12.87
2019-04-01T17:33:58.021Z,10.23
2019-04-01T17:36:28.516Z,9.20
2019-04-01T17:38:58.925Z,16.37
2019-04-01T17:41:29.354Z,14.60
2019-04-01T17:43:59.756Z,12.10
2019-04-01T17:46:29.972Z,8.00
2019-04-01T17:49:00.078Z,14.77
2019-04-01T17:51:30.247Z,22.00
2019-04-01T17:54:01.087Z,22.23
2019-04-01T17:56:30.928Z,19.73
2019-04-01T17:59:01.755Z,30.07
2019-04-01T18:01:31.830Z,29.50
2019-04-01T18:04:02.525Z,36.60
2019-04-01T18:06:32.545Z,43.03
2019-04-01T18:09:02.999Z,32.40
2019-04-01T18:11:33.242Z,30.47
2019-04-01T18:14:03.371Z,24.10
2019-04-01T18:16:34.139Z,29.87
2019-04-01T18:19:04.382Z,21.57
2019-04-01T18:21:37.939Z,24.87
2019-04-01T18:24:05.179Z,27.13
2019-04-01T18:26:35.350Z,27.63
2019-04-01T18:29:05.493Z,37.80
2019-04-01T18:31:36.196Z,35.33
2019-04-01T18:34:06.732Z,22.23
2019-04-01T18:36:36.912Z,26.00
2019-04-01T18:39:09.164Z,30.93
2019-04-01T18:41:39.376Z,26.80
2019-04-01T18:44:09.989Z,25.60
2019-04-01T18:46:40.338Z,20.07
2019-04-01T18:49:10.435Z,26.73
2019-04-01T18:51:40.673Z,20.80
2019-04-01T18:54:10.901Z,21.53
2019-04-01T18:56:41.330Z,28.17
2019-04-01T18:59:11.667Z,13.40
2019-04-01T19:01:41.830Z,22.40
2019-04-01T19:04:12.418Z,12.07
2019-04-01T19:06:42.586Z,16.17
2019-04-01T19:09:13.050Z,12.83
2019-04-01T19:11:43.617Z,8.97
2019-04-01T19:14:14.164Z,17.57
2019-04-01T19:16:46.057Z,14.27
2019-04-01T19:19:14.531Z,15.93
2019-04-01T19:21:44.979Z,19.47
2019-04-01T19:24:15.412Z,32.03
2019-04-01T19:26:45.942Z,32.70
2019-04-01T19:29:16.192Z,28.27
2019-04-01T19:31:46.684Z,20.90
2019-04-01T19:34:16.973Z,15.67
2019-04-01T19:36:47.499Z,11.77
2019-04-01T19:39:17.901Z,8.43
2019-04-01T19:41:49.054Z,12.23
2019-04-01T19:44:18.868Z,13.40
2019-04-01T19:46:49.570Z,9.67
2019-04-01T19:49:20.054Z,16.47
2019-04-01T19:51:50.460Z,39.30
2019-04-01T19:54:30.698Z,19.80
2019-04-01T19:56:51.696Z,107.10
2019-04-01T19:59:24.478Z,76.23
2019-04-01T20:01:52.971Z,26.57
2019-04-01T20:04:23.728Z,12.30
2019-04-01T20:06:54.414Z,17.60
2019-04-01T20:09:24.842Z,23.97
2019-04-01T20:11:58.224Z,29.10
2019-04-01T20:14:25.267Z,23.07
2019-04-01T20:16:55.685Z,23.80
2019-04-01T20:19:26.175Z,29.57
2019-04-01T20:21:57.449Z,26.13
2019-04-01T20:24:27.861Z,21.80
2019-04-01T20:27:29.300Z,28.10
2019-04-01T20:29:59.659Z,29.37
2019-04-01T20:32:31.402Z,32.43
2019-04-01T20:35:02.090Z,33.53
2019-04-01T20:37:32.958Z,18.37
2019-04-01T20:40:03.506Z,22.17
2019-04-01T20:42:33.807Z,19.37
2019-04-01T20:45:03.708Z,17.83
2019-04-01T20:47:35.885Z,21.43
2019-04-01T20:50:06.075Z,20.60
2019-04-01T20:52:36.676Z,22.77
2019-04-01T20:55:07.415Z,23.40
2019-04-01T20:57:38.217Z,21.17
2019-04-01T21:00:09.499Z,21.00
2019-04-01T21:02:39.822Z,24.07
2019-04-01T21:05:10.574Z,21.23
2019-04-01T21:07:41.289Z,22.70
2019-04-01T21:10:11.871Z,18.80
2019-04-01T21:12:42.361Z,19.43
2019-04-01T21:15:13.115Z,18.23
2019-04-01T21:17:43.580Z,15.63
2019-04-01T21:20:14.128Z,17.77
2019-04-01T21:22:44.687Z,17.83
2019-04-01T21:25:15.059Z,17.43
2019-04-01T21:27:45.774Z,15.83
2019-04-01T21:30:16.539Z,14.27
2019-04-01T21:32:46.995Z,15.80
2019-04-01T21:35:17.775Z,13.40
2019-04-01T21:37:48.357Z,14.63
2019-04-01T21:40:19.347Z,14.93
2019-04-01T21:42:51.334Z,16.13
2019-04-01T21:45:20.850Z,13.73
2019-04-01T21:47:51.540Z,15.83
2019-04-01T21:50:22.843Z,11.17
2019-04-01T21:52:53.506Z,10.37
2019-04-01T21:55:25.160Z,11.23
2019-04-01T21:57:54.829Z,10.90
2019-04-01T22:00:30.892Z,11.43
2019-04-01T22:03:04.326Z,11.07
2019-04-01T22:05:32.151Z,10.80
2019-04-01T22:08:02.877Z,10.73
2019-04-01T22:10:33.397Z,10.73
2019-04-01T22:13:04.134Z,16.97
2019-04-01T22:15:34.598Z,11.77
2019-04-01T22:18:05.106Z,12.73
2019-04-01T22:20:35.707Z,11.50
2019-04-01T22:23:06.678Z,10.03
2019-04-01T22:25:36.742Z,13.43
2019-04-01T22:28:07.353Z,14.10
2019-04-01T22:30:37.952Z,12.37
2019-04-01T22:33:08.383Z,9.33
2019-04-01T22:35:39.421Z,11.57
2019-04-01T22:38:09.079Z,9.70
2019-04-01T22:40:39.355Z,11.20
2019-04-01T22:43:09.615Z,11.80
2019-04-01T22:45:39.707Z,11.70
2019-04-01T22:48:09.868Z,11.27
2019-04-01T22:50:40.301Z,9.63
2019-04-01T22:53:10.567Z,10.43
2019-04-01T22:55:40.954Z,13.03
2019-04-01T22:58:11.098Z,9.30
2019-04-01T23:00:41.621Z,11.90
2019-04-01T23:03:12.374Z,8.73
2019-04-01T23:05:42.462Z,12.00
2019-04-01T23:08:12.817Z,10.20
2019-04-01T23:10:43.288Z,9.10
2019-04-01T23:13:13.441Z,12.10
2019-04-01T23:15:44.160Z,11.57
2019-04-01T23:18:13.908Z,14.03
2019-04-01T23:20:44.002Z,11.77
2019-04-01T23:23:14.763Z,8.90
2019-04-01T23:25:45.498Z,8.20
2019-04-01T23:28:15.638Z,10.87
2019-04-01T23:30:45.743Z,8.60
2019-04-01T23:33:16.321Z,11.73
2019-04-01T23:35:46.441Z,9.57
2019-04-01T23:38:16.561Z,13.87
2019-04-01T23:40:46.826Z,10.40
2019-04-01T23:43:17.010Z,10.83
2019-04-01T23:45:46.538Z,13.53
2019-04-01T23:48:16.567Z,8.37
2019-04-01T23:50:46.662Z,8.93
2019-04-01T23:53:16.979Z,11.60
2019-04-01T23:55:47.445Z,9.23
2019-04-01T23:58:17.993Z,8.83
